createdAt,value
2023-05-23T00:01:14.703Z,51.10
2023-05-23T00:03:42.441Z,48.53
2023-05-23T00:06:10.336Z,55.23
2023-05-23T00:08:38.059Z,62.77
2023-05-23T00:11:07.278Z,54.80
2023-05-23T00:13:35.824Z,64.10
2023-05-23T00:16:03.712Z,57.73
2023-05-23T00:18:31.601Z,61.60
2023-05-23T00:20:59.977Z,72.57
2023-05-23T00:23:29.668Z,63.17
2023-05-23T00:25:58.685Z,61.33
2023-05-23T00:28:28.082Z,61.33
2023-05-23T00:30:55.876Z,81.70
2023-05-23T00:33:23.814Z,71.80
2023-05-23T00:35:51.657Z,71.53
2023-05-23T00:38:19.661Z,69.30
2023-05-23T00:40:48.212Z,71.40
2023-05-23T00:43:16.147Z,78.83
2023-05-23T00:45:45.368Z,75.03
2023-05-23T00:48:13.508Z,73.33
2023-05-23T00:50:41.992Z,76.97
2023-05-23T00:53:09.826Z,79.13
2023-05-23T00:55:39.601Z,77.43
2023-05-23T00:58:07.802Z,94.50
2023-05-23T01:00:35.900Z,74.80
2023-05-23T01:03:06.089Z,88.40
2023-05-23T01:05:33.832Z,90.17
2023-05-23T01:08:03.228Z,72.40
2023-05-23T01:10:32.308Z,75.00
2023-05-23T01:13:11.299Z,81.13
2023-05-23T01:15:43.650Z,94.53
2023-05-23T01:18:19.842Z,88.03
2023-05-23T01:20:52.012Z,84.33
2023-05-23T01:23:59.902Z,84.77
2023-05-23T01:26:36.002Z,84.57
2023-05-23T01:29:11.081Z,88.53
2023-05-23T01:31:43.912Z,89.40
2023-05-23T01:34:13.474Z,87.10
2023-05-23T01:36:43.517Z,93.63
2023-05-23T01:39:11.541Z,100.47
2023-05-23T01:41:39.360Z,93.80
2023-05-23T01:44:08.982Z,93.03
2023-05-23T01:46:39.262Z,84.43
2023-05-23T01:49:10.822Z,100.60
2023-05-23T01:51:39.202Z,99.97
2023-05-23T01:54:07.369Z,103.30
2023-05-23T01:56:36.051Z,88.50
2023-05-23T01:59:04.349Z,96.80
2023-05-23T02:01:34.574Z,94.97
2023-05-23T02:04:02.372Z,94.07
2023-05-23T02:06:30.113Z,104.67
2023-05-23T02:08:57.845Z,112.93
2023-05-23T02:11:26.846Z,97.67
2023-05-23T02:13:54.914Z,101.33
2023-05-23T02:16:23.296Z,100.23
2023-05-23T02:18:53.304Z,110.97
2023-05-23T02:21:21.154Z,110.80
2023-05-23T02:23:48.856Z,114.47
2023-05-23T02:26:16.570Z,103.00
2023-05-23T02:28:44.332Z,103.07
2023-05-23T02:31:12.422Z,107.23
2023-05-23T02:33:40.203Z,106.27
2023-05-23T02:36:09.534Z,104.30
2023-05-23T02:38:37.294Z,99.53
2023-05-23T02:41:05.864Z,114.67
2023-05-23T02:43:33.587Z,110.80
2023-05-23T02:46:01.384Z,106.17
2023-05-23T02:48:29.238Z,94.43
2023-05-23T02:50:57.154Z,107.50
2023-05-23T02:53:26.393Z,104.63
2023-05-23T02:55:54.086Z,108.33
2023-05-23T02:58:21.824Z,109.00
2023-05-23T03:00:50.508Z,113.33
2023-05-23T03:03:18.541Z,99.83
2023-05-23T03:05:46.447Z,109.87
2023-05-23T03:08:14.135Z,111.50
2023-05-23T03:10:43.197Z,101.37
2023-05-23T03:13:10.918Z,108.83
2023-05-23T03:15:38.754Z,98.50
2023-05-23T03:18:06.735Z,108.37
2023-05-23T03:20:34.536Z,99.73
2023-05-23T03:23:02.280Z,93.87
2023-05-23T03:25:29.965Z,99.77
2023-05-23T03:27:59.052Z,100.30
2023-05-23T03:30:26.767Z,94.00
2023-05-23T03:32:55.698Z,92.03
2023-05-23T03:35:23.453Z,98.27
2023-05-23T03:37:51.209Z,93.17
2023-05-23T03:40:18.991Z,94.57
2023-05-23T03:42:50.166Z,91.83
2023-05-23T03:45:19.281Z,83.87
2023-05-23T03:47:47.037Z,86.00
2023-05-23T03:50:14.854Z,89.87
2023-05-23T03:52:42.624Z,82.30
2023-05-23T03:55:11.317Z,89.43
2023-05-23T03:57:39.013Z,79.40
2023-05-23T04:00:10.147Z,88.70
2023-05-23T04:02:39.577Z,82.00
2023-05-23T04:05:07.908Z,83.63
2023-05-23T04:07:36.715Z,83.80
2023-05-23T04:10:04.455Z,83.50
2023-05-23T04:12:32.355Z,80.13
2023-05-23T04:15:00.264Z,71.93
2023-05-23T04:17:30.662Z,83.87
2023-05-23T04:19:59.977Z,86.30
2023-05-23T04:22:27.829Z,80.47
2023-05-23T04:24:55.716Z,88.73
2023-05-23T04:27:26.089Z,88.30
2023-05-23T04:29:53.801Z,81.23
2023-05-23T04:32:23.088Z,76.90
2023-05-23T04:34:51.891Z,75.77
2023-05-23T04:37:26.224Z,84.83
2023-05-23T04:39:54.639Z,76.10
2023-05-23T04:42:24.759Z,82.53
2023-05-23T04:44:53.576Z,82.33
2023-05-23T04:47:21.354Z,78.70
2023-05-23T04:49:49.115Z,81.03
2023-05-23T04:52:19.070Z,75.13
2023-05-23T04:54:49.915Z,81.47
2023-05-23T04:57:17.702Z,79.23
2023-05-23T04:59:46.497Z,83.93
2023-05-23T05:02:14.175Z,79.63
2023-05-23T05:04:41.995Z,69.83
2023-05-23T05:07:09.746Z,71.90
2023-05-23T05:09:37.459Z,79.20
2023-05-23T05:12:07.198Z,70.03
2023-05-23T05:14:34.989Z,78.83
2023-05-23T05:17:04.142Z,75.23
2023-05-23T05:19:32.248Z,77.07
2023-05-23T05:22:00.366Z,81.10
2023-05-23T05:24:29.008Z,74.07
2023-05-23T05:26:57.373Z,72.63
2023-05-23T05:29:26.807Z,79.00
2023-05-23T05:31:54.552Z,73.03
2023-05-23T05:34:22.890Z,76.07
2023-05-23T05:36:50.655Z,70.83
2023-05-23T05:39:18.399Z,69.20
2023-05-23T05:41:46.065Z,65.77
2023-05-23T05:44:13.808Z,69.93
2023-05-23T05:46:43.075Z,69.03
2023-05-23T05:49:12.388Z,75.90
2023-05-23T05:51:40.356Z,70.30
2023-05-23T05:54:08.574Z,65.93
2023-05-23T05:56:36.294Z,73.50
2023-05-23T05:59:03.984Z,71.93
2023-05-23T06:01:31.889Z,66.13
2023-05-23T06:04:01.185Z,73.50
2023-05-23T06:06:29.037Z,69.07
2023-05-23T06:08:56.921Z,68.60
2023-05-23T06:11:24.754Z,69.27
2023-05-23T06:13:52.487Z,72.17
2023-05-23T06:16:20.283Z,73.57
2023-05-23T06:18:48.026Z,71.60
2023-05-23T06:21:17.165Z,80.00
2023-05-23T06:23:44.887Z,76.97
2023-05-23T06:26:12.647Z,80.40
2023-05-23T06:28:40.684Z,73.87
2023-05-23T06:31:10.035Z,73.27
2023-05-23T06:33:37.863Z,74.93
2023-05-23T06:36:05.978Z,68.57
2023-05-23T06:38:35.243Z,75.73
2023-05-23T06:41:03.832Z,72.77
2023-05-23T06:43:31.614Z,71.97
2023-05-23T06:45:59.507Z,72.80
2023-05-23T06:48:27.458Z,67.77
2023-05-23T06:50:55.447Z,73.03
2023-05-23T06:53:23.519Z,68.90
2023-05-23T06:55:52.748Z,66.73
2023-05-23T06:58:20.508Z,69.37
2023-05-23T07:00:48.265Z,70.40
2023-05-23T07:03:16.736Z,63.17
2023-05-23T07:05:44.766Z,76.47
2023-05-23T07:08:13.155Z,73.87
2023-05-23T07:10:41.660Z,65.53
2023-05-23T07:13:11.099Z,60.43
2023-05-23T07:15:39.945Z,65.93
2023-05-23T07:18:07.983Z,61.60
2023-05-23T07:20:35.893Z,60.83
2023-05-23T07:23:03.641Z,60.23
2023-05-23T07:25:31.349Z,54.93
2023-05-23T07:27:59.096Z,54.20
2023-05-23T07:30:28.352Z,55.13
2023-05-23T07:32:56.134Z,50.57
2023-05-23T07:35:26.330Z,54.07
2023-05-23T07:37:54.380Z,51.23
2023-05-23T07:40:22.402Z,53.17
2023-05-23T07:42:50.213Z,57.77
2023-05-23T07:45:18.031Z,53.10
2023-05-23T07:47:47.046Z,55.30
2023-05-23T07:50:14.784Z,62.23
2023-05-23T07:52:42.540Z,54.53
2023-05-23T07:55:11.745Z,60.60
2023-05-23T07:57:39.559Z,53.37
2023-05-23T08:00:10.096Z,51.23
2023-05-23T08:02:37.900Z,53.30
2023-05-23T08:05:08.650Z,48.60
2023-05-23T08:07:36.353Z,45.97
2023-05-23T08:10:04.248Z,46.40
2023-05-23T08:12:32.589Z,39.67
2023-05-23T08:15:00.431Z,40.97
2023-05-23T08:17:28.253Z,53.20
2023-05-23T08:19:56.133Z,46.07
2023-05-23T08:22:25.216Z,38.90
2023-05-23T08:24:52.994Z,46.43
2023-05-23T08:27:20.760Z,41.07
2023-05-23T08:29:50.172Z,43.97
2023-05-23T08:32:18.172Z,42.37
2023-05-23T08:34:46.001Z,43.10
2023-05-23T08:37:13.776Z,45.00
2023-05-23T08:39:42.913Z,52.03
2023-05-23T08:42:10.646Z,36.70
2023-05-23T08:44:38.496Z,34.77
2023-05-23T08:47:06.620Z,37.03
2023-05-23T08:49:34.994Z,34.13
2023-05-23T08:52:04.667Z,37.07
2023-05-23T08:54:32.955Z,29.43
2023-05-23T08:57:02.904Z,33.70
2023-05-23T08:59:32.004Z,33.30
2023-05-23T09:02:00.760Z,33.57
2023-05-23T09:04:29.252Z,34.60
2023-05-23T09:06:58.080Z,34.97
2023-05-23T09:09:26.711Z,36.43
2023-05-23T09:11:57.140Z,39.40
2023-05-23T09:14:26.980Z,37.17
2023-05-23T09:16:54.821Z,34.77
2023-05-23T09:19:22.599Z,37.80
2023-05-23T09:21:50.713Z,34.20
2023-05-23T09:24:18.497Z,36.53
2023-05-23T09:26:48.343Z,32.90
2023-05-23T09:29:20.382Z,32.80
2023-05-23T09:31:49.812Z,33.47
2023-05-23T09:34:17.961Z,30.37
2023-05-23T09:36:47.923Z,29.50
2023-05-23T09:39:15.834Z,30.73
2023-05-23T09:41:43.893Z,33.43
2023-05-23T09:44:11.763Z,29.20
2023-05-23T09:46:39.558Z,27.37
2023-05-23T09:49:18.988Z,28.53
2023-05-23T09:51:58.814Z,27.30
2023-05-23T09:54:26.716Z,24.33
2023-05-23T09:56:56.204Z,26.17
2023-05-23T09:59:25.202Z,32.63
2023-05-23T10:01:56.123Z,26.33
2023-05-23T10:04:26.741Z,24.70
2023-05-23T10:07:04.212Z,24.53
2023-05-23T10:09:37.413Z,25.67
2023-05-23T10:12:42.409Z,23.97
2023-05-23T10:15:11.315Z,26.30
2023-05-23T10:18:03.840Z,28.60
2023-05-23T10:20:34.048Z,23.00
2023-05-23T10:23:02.445Z,22.13
2023-05-23T10:25:30.488Z,23.87
2023-05-23T10:28:02.480Z,19.13
2023-05-23T10:30:32.156Z,26.30
2023-05-23T10:33:00.747Z,20.03
2023-05-23T10:35:43.520Z,20.30
2023-05-23T10:38:29.739Z,17.17
2023-05-23T10:41:07.514Z,20.17
2023-05-23T10:43:42.125Z,20.50
2023-05-23T10:46:10.356Z,18.10
2023-05-23T10:48:44.123Z,20.30
2023-05-23T10:51:14.674Z,16.17
2023-05-23T10:53:43.966Z,22.20
2023-05-23T10:56:32.629Z,17.77
2023-05-23T10:59:00.382Z,19.10
2023-05-23T11:01:28.565Z,17.10
2023-05-23T11:03:56.777Z,22.97
2023-05-23T11:06:35.141Z,19.13
2023-05-23T11:09:06.985Z,19.60
2023-05-23T11:11:55.538Z,20.80
2023-05-23T11:14:33.776Z,19.23
2023-05-23T11:17:02.360Z,18.53
2023-05-23T11:19:30.544Z,20.17
2023-05-23T11:22:05.937Z,16.77
2023-05-23T11:24:51.054Z,17.03
2023-05-23T11:27:20.390Z,20.03
2023-05-23T11:29:58.878Z,19.90
2023-05-23T11:32:29.638Z,15.53
2023-05-23T11:35:00.089Z,11.87
2023-05-23T11:37:29.778Z,15.77
2023-05-23T11:39:57.799Z,17.83
2023-05-23T11:42:25.971Z,16.63
2023-05-23T11:44:54.354Z,17.90
2023-05-23T11:47:22.276Z,16.60
2023-05-23T11:49:50.400Z,18.13
2023-05-23T11:52:18.262Z,21.73
2023-05-23T11:54:47.458Z,19.83
2023-05-23T11:57:15.323Z,16.90
2023-05-23T11:59:43.547Z,22.50
2023-05-23T12:02:11.447Z,19.30
2023-05-23T12:04:39.428Z,25.80
2023-05-23T12:07:08.336Z,18.20
2023-05-23T12:09:43.636Z,18.87
2023-05-23T12:12:13.585Z,19.17
2023-05-23T12:14:44.723Z,17.07
2023-05-23T12:17:13.890Z,19.23
2023-05-23T12:19:47.014Z,16.77
2023-05-23T12:22:14.779Z,16.10
2023-05-23T12:24:46.660Z,16.60
2023-05-23T12:27:18.798Z,14.23
2023-05-23T12:29:52.710Z,13.90
2023-05-23T12:32:20.761Z,15.90
2023-05-23T12:34:50.727Z,12.30
2023-05-23T12:37:20.567Z,14.83
2023-05-23T12:39:48.864Z,14.03
2023-05-23T12:42:18.185Z,13.70
2023-05-23T12:44:47.181Z,12.63
2023-05-23T12:47:15.100Z,14.97
2023-05-23T12:49:44.810Z,11.93
2023-05-23T12:52:12.662Z,17.30
2023-05-23T12:54:40.418Z,12.90
2023-05-23T12:57:08.122Z,13.00
2023-05-23T12:59:37.405Z,14.23
2023-05-23T13:02:05.274Z,12.73
2023-05-23T13:04:33.244Z,11.20
2023-05-23T13:07:01.026Z,10.57
2023-05-23T13:09:28.897Z,11.00
2023-05-23T13:11:56.885Z,14.00
2023-05-23T13:14:24.830Z,10.20
2023-05-23T13:16:54.088Z,12.63
2023-05-23T13:19:22.002Z,8.10
2023-05-23T13:21:50.200Z,10.33
2023-05-23T13:24:18.095Z,11.27
2023-05-23T13:26:45.914Z,11.03
2023-05-23T13:29:13.737Z,11.80
2023-05-23T13:31:41.656Z,9.30
2023-05-23T13:34:10.969Z,11.33
2023-05-23T13:36:38.762Z,12.30
2023-05-23T13:39:07.133Z,10.40
2023-05-23T13:41:34.932Z,10.10
2023-05-23T13:44:02.645Z,10.00
2023-05-23T13:46:30.822Z,11.63
2023-05-23T13:48:58.577Z,9.30
2023-05-23T13:51:27.757Z,10.73
2023-05-23T13:53:55.722Z,8.77
2023-05-23T13:56:24.379Z,11.73
2023-05-23T13:58:52.259Z,9.87
2023-05-23T14:01:20.133Z,9.13
2023-05-23T14:03:47.851Z,11.53
2023-05-23T14:06:15.841Z,14.13
2023-05-23T14:08:44.956Z,11.80
2023-05-23T14:11:12.919Z,10.00
2023-05-23T14:13:40.773Z,9.93
2023-05-23T14:16:08.857Z,10.43
2023-05-23T14:18:36.663Z,8.00
2023-05-23T14:21:04.571Z,18.00
2023-05-23T14:23:32.562Z,11.13
2023-05-23T14:26:01.686Z,10.47
2023-05-23T14:28:29.473Z,12.10
2023-05-23T14:30:57.389Z,8.97
2023-05-23T14:33:25.209Z,10.30
2023-05-23T14:35:53.179Z,10.00
2023-05-23T14:38:21.138Z,11.20
2023-05-23T14:40:49.620Z,14.60
2023-05-23T14:43:19.124Z,13.53
2023-05-23T14:45:47.074Z,8.40
2023-05-23T14:48:14.921Z,8.50
2023-05-23T14:50:42.679Z,9.83
2023-05-23T14:53:10.787Z,7.60
2023-05-23T14:55:38.754Z,10.83
2023-05-23T14:58:07.116Z,9.30
2023-05-23T15:00:36.189Z,9.07
2023-05-23T15:03:04.780Z,12.77
2023-05-23T15:05:32.728Z,11.13
2023-05-23T15:08:00.485Z,10.73
2023-05-23T15:10:28.641Z,10.23
2023-05-23T15:12:56.588Z,18.90
2023-05-23T15:15:24.557Z,11.20
2023-05-23T15:17:53.913Z,9.57
2023-05-23T15:20:21.805Z,9.27
2023-05-23T15:22:49.645Z,9.00
2023-05-23T15:25:19.090Z,8.50
2023-05-23T15:27:52.093Z,11.77
2023-05-23T15:30:19.811Z,7.07
2023-05-23T15:32:49.132Z,9.63
2023-05-23T15:35:19.896Z,9.17
2023-05-23T15:37:47.872Z,6.00
2023-05-23T15:40:15.844Z,6.50
2023-05-23T15:42:43.613Z,7.17
2023-05-23T15:45:12.325Z,9.70
2023-05-23T15:47:40.244Z,12.43
2023-05-23T15:50:09.188Z,10.73
2023-05-23T15:52:38.487Z,9.77
2023-05-23T15:55:07.163Z,11.77
2023-05-23T15:57:34.977Z,11.20
2023-05-23T16:00:02.762Z,11.50
2023-05-23T16:02:30.592Z,9.00
2023-05-23T16:04:58.818Z,9.20
2023-05-23T16:07:26.585Z,8.60
2023-05-23T16:09:55.705Z,9.10
2023-05-23T16:12:23.484Z,9.70
2023-05-23T16:14:51.228Z,11.53
2023-05-23T16:17:19.157Z,10.10
2023-05-23T16:19:47.443Z,15.70
2023-05-23T16:22:15.266Z,12.53
2023-05-23T16:24:43.007Z,14.33
2023-05-23T16:27:12.108Z,14.97
2023-05-23T16:29:39.924Z,15.30
2023-05-23T16:32:08.707Z,18.27
2023-05-23T16:34:36.545Z,18.70
2023-05-23T16:37:04.328Z,12.63
2023-05-23T16:39:32.126Z,15.67
2023-05-23T16:42:00.604Z,10.80
2023-05-23T16:44:29.876Z,16.20
2023-05-23T16:46:57.635Z,12.73
2023-05-23T16:49:25.463Z,12.90
2023-05-23T16:51:53.184Z,14.70
2023-05-23T16:54:20.881Z,14.30
2023-05-23T16:56:48.551Z,15.57
2023-05-23T16:59:16.371Z,18.30
2023-05-23T17:01:45.524Z,17.50
2023-05-23T17:04:13.485Z,17.53
2023-05-23T17:06:41.300Z,16.13
2023-05-23T17:09:09.107Z,12.87
2023-05-23T17:11:36.930Z,17.17
2023-05-23T17:14:04.959Z,18.63
2023-05-23T17:16:33.688Z,13.57
2023-05-23T17:19:03.180Z,13.90
2023-05-23T17:21:31.354Z,15.30
2023-05-23T17:23:59.357Z,15.40
2023-05-23T17:26:28.292Z,14.47
2023-05-23T17:28:56.295Z,15.40
2023-05-23T17:31:25.044Z,14.50
2023-05-23T17:33:53.118Z,14.80
2023-05-23T17:36:22.660Z,13.23
2023-05-23T17:38:53.794Z,18.13
2023-05-23T17:41:23.378Z,10.13
2023-05-23T17:43:51.571Z,12.03
2023-05-23T17:46:19.686Z,11.10
2023-05-23T17:49:00.878Z,9.43
2023-05-23T17:51:31.091Z,9.70
2023-05-23T17:53:59.086Z,9.10
2023-05-23T17:56:26.949Z,8.67
2023-05-23T17:58:54.995Z,6.47
2023-05-23T18:01:22.899Z,8.77
2023-05-23T18:03:50.837Z,7.40
2023-05-23T18:06:18.821Z,8.77
2023-05-23T18:08:48.553Z,12.90
2023-05-23T18:11:16.699Z,10.53
2023-05-23T18:13:44.786Z,8.13
2023-05-23T18:16:12.784Z,11.73
2023-05-23T18:18:41.403Z,12.60
2023-05-23T18:21:09.706Z,10.13
2023-05-23T18:23:37.740Z,9.13
2023-05-23T18:26:07.176Z,8.30
2023-05-23T18:28:34.972Z,9.30
2023-05-23T18:31:02.944Z,9.93
2023-05-23T18:33:31.895Z,10.30
2023-05-23T18:35:59.813Z,15.00
2023-05-23T18:38:28.076Z,9.90
2023-05-23T18:40:56.379Z,11.03
2023-05-23T18:43:25.626Z,10.23
2023-05-23T18:45:53.760Z,10.33
2023-05-23T18:48:21.768Z,10.00
2023-05-23T18:50:49.532Z,10.83
2023-05-23T18:53:17.494Z,10.83
2023-05-23T18:55:45.400Z,9.90
2023-05-23T18:58:13.362Z,12.90
2023-05-23T19:00:44.291Z,15.83
2023-05-23T19:03:12.219Z,9.77
2023-05-23T19:05:40.830Z,17.33
2023-05-23T19:08:09.950Z,14.70
2023-05-23T19:10:38.475Z,12.27
2023-05-23T19:13:06.624Z,10.07
2023-05-23T19:15:34.635Z,8.93
2023-05-23T19:18:03.854Z,11.87
2023-05-23T19:20:32.506Z,7.90
2023-05-23T19:23:00.868Z,8.53
2023-05-23T19:25:28.974Z,9.27
2023-05-23T19:27:56.841Z,7.63
2023-05-23T19:30:24.790Z,6.07
2023-05-23T19:32:52.780Z,5.93
2023-05-23T19:35:22.090Z,13.50
2023-05-23T19:37:50.132Z,4.03
2023-05-23T19:40:18.072Z,7.23
2023-05-23T19:42:45.918Z,5.70
2023-05-23T19:45:13.766Z,4.93
2023-05-23T19:47:41.984Z,6.40
2023-05-23T19:50:11.366Z,6.27
2023-05-23T19:52:41.158Z,7.13
2023-05-23T19:55:10.177Z,5.10
2023-05-23T19:57:38.289Z,6.67
2023-05-23T20:00:07.576Z,5.80
2023-05-23T20:02:35.747Z,5.40
2023-05-23T20:05:03.954Z,5.80
2023-05-23T20:07:31.778Z,4.77
2023-05-23T20:10:00.844Z,7.90
2023-05-23T20:12:28.996Z,9.53
2023-05-23T20:14:57.438Z,5.33
2023-05-23T20:17:25.267Z,7.10
2023-05-23T20:19:53.251Z,7.60
2023-05-23T20:22:31.817Z,5.13
2023-05-23T20:25:01.569Z,6.53
2023-05-23T20:27:29.330Z,5.50
2023-05-23T20:29:57.513Z,7.10
2023-05-23T20:32:27.163Z,7.03
2023-05-23T20:34:55.883Z,6.10
2023-05-23T20:37:23.680Z,10.07
2023-05-23T20:39:52.991Z,6.40
2023-05-23T20:42:22.982Z,6.43
2023-05-23T20:44:51.905Z,6.30
2023-05-23T20:47:20.421Z,7.67
2023-05-23T20:49:49.615Z,6.70
2023-05-23T20:52:17.659Z,7.20
2023-05-23T20:54:48.060Z,10.27
2023-05-23T20:57:15.984Z,6.50
2023-05-23T20:59:46.091Z,6.10
2023-05-23T21:02:15.793Z,10.50
2023-05-23T21:04:44.150Z,7.13
2023-05-23T21:07:13.447Z,7.50
2023-05-23T21:09:41.223Z,7.10
2023-05-23T21:12:09.223Z,5.93
2023-05-23T21:14:36.950Z,8.90
2023-05-23T21:17:06.471Z,7.10
2023-05-23T21:19:34.588Z,6.87
2023-05-23T21:22:02.403Z,5.60
2023-05-23T21:24:30.193Z,7.67
2023-05-23T21:26:58.068Z,5.70
2023-05-23T21:29:25.856Z,6.23
2023-05-23T21:31:53.590Z,13.87
2023-05-23T21:34:24.257Z,6.93
2023-05-23T21:36:52.773Z,6.50
2023-05-23T21:39:21.229Z,6.40
2023-05-23T21:41:49.191Z,6.33
2023-05-23T21:44:17.594Z,6.87
2023-05-23T21:46:45.780Z,5.97
2023-05-23T21:49:13.704Z,5.77
2023-05-23T21:51:44.057Z,7.30
2023-05-23T21:54:11.831Z,6.67
2023-05-23T21:56:39.645Z,6.97
2023-05-23T21:59:07.405Z,6.33
2023-05-23T22:01:35.325Z,5.10
2023-05-23T22:04:03.483Z,6.60
2023-05-23T22:06:33.230Z,5.57
2023-05-23T22:09:02.539Z,7.00
2023-05-23T22:11:33.962Z,6.00
2023-05-23T22:14:02.291Z,5.40
2023-05-23T22:16:32.880Z,9.00
2023-05-23T22:19:02.059Z,5.00
2023-05-23T22:21:30.002Z,7.20
2023-05-23T22:23:58.131Z,6.27
2023-05-23T22:26:27.321Z,7.10
2023-05-23T22:28:55.394Z,6.53
2023-05-23T22:31:24.175Z,5.73
2023-05-23T22:33:52.309Z,8.07
2023-05-23T22:36:20.107Z,6.80
2023-05-23T22:38:47.855Z,8.70
2023-05-23T22:41:15.795Z,9.70
2023-05-23T22:43:45.026Z,5.83
2023-05-23T22:46:12.822Z,7.20
2023-05-23T22:48:40.731Z,6.90
2023-05-23T22:51:12.409Z,12.77
2023-05-23T22:53:41.192Z,7.33
2023-05-23T22:56:08.951Z,9.47
2023-05-23T22:58:36.873Z,5.60
2023-05-23T23:01:06.350Z,10.50
2023-05-23T23:03:34.179Z,8.07
2023-05-23T23:06:01.923Z,7.80
2023-05-23T23:08:29.644Z,11.63
2023-05-23T23:10:57.418Z,7.80
2023-05-23T23:13:25.219Z,6.03
2023-05-23T23:15:53.171Z,8.10
2023-05-23T23:18:22.430Z,8.23
2023-05-23T23:20:50.196Z,8.20
2023-05-23T23:23:18.066Z,7.23
2023-05-23T23:25:50.027Z,6.50
2023-05-23T23:28:18.241Z,8.80
2023-05-23T23:30:46.006Z,7.50
2023-05-23T23:33:14.580Z,9.37
2023-05-23T23:35:46.529Z,12.00
2023-05-23T23:38:14.316Z,9.20
2023-05-23T23:40:44.345Z,6.60
2023-05-23T23:43:12.449Z,9.90
2023-05-23T23:45:40.224Z,8.20
2023-05-23T23:48:07.965Z,7.90
2023-05-23T23:50:35.826Z,8.77
2023-05-23T23:53:04.995Z,7.23
2023-05-23T23:55:32.727Z,7.00
2023-05-23T23:58:02.864Z,12.10
